Weather

DAILY 7 DAY TOTAL
onrain

Note: Some stations are located near irrigated fields and may also report irrigation

Alliston Mount Forest Blyth Guelph Grand Bend Strathroy Woodstock Belmont Simcoe Leamington Chatham West Lorne






Leamington-Base - Historical Weather Data
Date Max Temp (°C) Min Temp (°C) Avg Temp (°C) Rain (mm) 7Day Rain(mm) Total Rain(mm) Avg RH (%)
7/16/2019 30.2 22.0 25.4 1.6 1.6 261.4 82.2
7/15/2019 31.1 14.2 24.3 0.0 0.0 259.8 62.2
7/14/2019 29.3 17.7 23.6 0.0 0.0 259.8 56.9
7/13/2019 33.4 15.1 25.7 0.0 0.0 259.8 66.3
7/12/2019 28.6 14.9 21.4 0.0 72.6 259.8 71.9
7/11/2019 32.3 19.1 26.7 0.0 74.6 259.8 63.3
7/10/2019 33.8 14.4 25.2 0.0 74.6 259.8 71.7
7/9/2019 27.8 13.4 20.9 0.0 74.8 259.8 64.2
7/8/2019 25.2 14.9 20.5 0.0 75.0 259.8 66.2
7/7/2019 26.8 17.8 21.7 0.0 75.0 259.8 75.1
7/6/2019 32.7 18.5 23.3 72.6 75.0 259.8 88.1
7/5/2019 36.7 18.8 28.4 2.0 2.4 187.2 71.8
7/4/2019 34.4 17.6 25.6 0.0 0.4 185.2 73.6
7/3/2019 31.6 20.1 24.8 0.2 0.4 185.2 79.4
7/2/2019 36.7 20.1 27.1 0.2 0.2 185.0 68.3
7/1/2019 33.6 12.7 24.4 0.0 0.0 184.8 62.7
6/30/2019 29.3 17.0 23.6 0.0 1.0 184.8 63.1
6/29/2019 33.4 19.8 26.6 0.0 1.0 184.8 67.7
6/28/2019 36.6 16.5 26.5 0.0 1.0 184.8 68.1
6/27/2019 35.2 17.9 25.4 0.0 1.0 184.8 56.1
6/26/2019 33.6 19.0 26.3 0.0 9.6 184.8 59.1
6/25/2019 31.3 17.8 23.8 0.0 9.6 184.8 63.8
6/24/2019 31.5 18.2 23.6 1.0 9.6 184.8 70.9
6/23/2019 26.3 10.5 19.6 0.0 8.6 183.8 59.6
6/22/2019 27.9 10.1 19.2 0.0 20.8 183.8 58.9
6/21/2019 27.5 12.3 18.9 0.0 22.8 183.8 63.4
6/20/2019 18.5 14.3 15.9 8.6 22.8 183.8 96.7
6/19/2019 27.2 12.2 20.6 0.0 22.4 175.2 72.4
6/18/2019 27.1 12.6 20.3 0.0 24.6 175.2 71.7
6/17/2019 22.6 11.0 16.4 0.0 24.6 175.2 82.0
6/16/2019 16.4 11.5 13.3 12.2 27.8 175.2 97.5
6/15/2019 21.3 16.4 18.1 2.0 15.8 163.0 80.9
6/14/2019 25.3 9.7 17.7 0.0 13.8 161.0 60.3
6/13/2019 19.5 11.4 15.0 8.2 13.8 161.0 88.2
6/12/2019 25.8 11.1 19.1 2.2 5.6 152.8 60.8
6/11/2019 27.6 9.2 18.3 0.0 22.0 150.6 60.5
6/10/2019 21.4 12.4 18.1 3.2 22.4 150.6 84.7
6/9/2019 24.1 16.9 19.6 0.2 19.2 147.4 72.8
6/8/2019 24.7 12.4 19.3 0.0 22.0 147.2 57.6
6/7/2019 24.5 11.3 18.9 0.0 46.2 147.2 66.6
6/6/2019 22.4 11.6 16.4 0.0 46.2 147.2 86.5
6/5/2019 28.2 14.5 19.6 18.6 56.0 147.2 86.9
6/4/2019 25.0 8.6 17.5 0.4 42.2 128.6 68.9
6/3/2019 17.8 6.0 11.6 0.0 47.0 128.2 62.7
6/2/2019 20.1 9.4 14.7 3.0 47.6 128.2 72.6
6/1/2019 27.3 13.4 18.6 24.2 47.8 125.2 83.8
5/31/2019 25.6 10.6 19.4 0.0 28.6 101.0 74.0
5/30/2019 23.6 12.2 16.4 9.8 28.6 101.0 91.0
5/29/2019 20.2 11.1 13.8 4.8 21.6 91.2 92.9
5/28/2019 29.2 12.5 19.7 5.2 21.0 86.4 83.0
5/27/2019 22.8 8.5 16.3 0.6 15.8 81.2 66.7
5/26/2019 19.8 11.9 16.8 3.2 15.2 80.6 90.8
5/25/2019 31.4 12.5 21.0 5.0 16.4 77.4 77.5
5/24/2019 21.8 10.6 16.2 0.0 21.6 72.4 69.4
5/23/2019 27.4 9.0 19.4 2.8 21.6 72.4 72.0
5/22/2019 18.0 8.9 12.3 4.2 18.8 69.6 77.2
5/21/2019 17.2 3.3 10.8 0.0 14.6 65.4 73.0
5/20/2019 16.4 7.7 13.5 0.0 14.6 65.4 77.2
5/19/2019 27.8 11.5 18.2 4.4 18.4 65.4 84.9
5/18/2019 17.0 8.2 12.3 10.2 23.8 61.0 79.9
5/17/2019 16.9 11.4 14.4 0.0 13.6 50.8 76.7
5/16/2019 24.4 7.3 16.6 0.0 16.2 50.8 68.3
5/15/2019 23.4 8.0 15.1 0.0 26.8 50.8 60.7
5/14/2019 19.6 3.5 11.5 0.0 26.8 50.8 69.3
5/13/2019 9.5 5.5 7.1 3.8 28.0 50.8 87.9
5/12/2019 11.5 6.3 8.2 9.8 24.2 47.0 85.2
5/11/2019 13.0 3.7 8.4 0.0 14.4 37.2 71.5
5/10/2019 14.8 6.0 12.0 2.6 14.6 37.2 75.9
5/9/2019 22.1 8.1 14.4 10.6 20.8 34.6 85.7
5/8/2019 13.0 5.0 9.0 0.0 14.4 24.0 63.1
5/7/2019 8.9 4.8 7.0 1.2 24.0 24.0 82.2
5/6/2019 25.6 7.7 15.6 0.0 24.4 22.8 70.7
5/5/2019 18.1 3.7 10.7 0.0 29.0 22.8 81.6
5/4/2019 12.1 4.8 7.9 0.2 33.8 22.8 88.0
5/3/2019 9.4 5.3 7.0 8.8 37.2 22.6 94.9
5/2/2019 14.2 6.0 9.3 4.2 55.6 13.8 95.7
5/1/2019 20.7 6.3 11.5 9.6 55.8 9.6 90.0